Time;durP1;ratioP1;P1;durP2;ratioP2;P2;SDS_P1;SDS_P2;PMS_P1;PMS_P2;Temp;Humidity;BMP_temperature;BMP_pressure;BME280_temperature;BME280_humidity;BME280_pressure;Samples;Min_cycle;Max_cycle;Signal;HPM_P1;HPM_P2
2021/06/30 00:00:13;;;;;;;12.35;3.58;;;;;;;;;;4897370;29;20028;-42
2021/06/30 00:02:39;;;;;;;14.05;2.50;;;;;;;;;;4897614;29;20040;-43
2021/06/30 00:05:06;;;;;;;8.38;2.25;;;;;;;;;;4895951;29;20016;-42
2021/06/30 00:07:32;;;;;;;15.00;2.50;;;;;;;;;;4897506;29;20036;-42
2021/06/30 00:09:57;;;;;;;15.80;2.80;;;;;;;;;;4897261;29;20020;-42
2021/06/30 00:12:23;;;;;;;13.93;3.00;;;;;;;;;;4897143;29;20055;-43
2021/06/30 00:14:48;;;;;;;12.93;2.45;;;;;;;;;;4897497;29;20024;-42
2021/06/30 00:17:14;;;;;;;15.60;2.97;;;;;;;;;;4897278;29;20044;-43
2021/06/30 00:19:39;;;;;;;13.20;2.92;;;;;;;;;;4897210;29;20476;-42
2021/06/30 00:22:04;;;;;;;13.52;2.95;;;;;;;;;;4897084;29;20498;-43
2021/06/30 00:24:30;;;;;;;9.68;2.53;;;;;;;;;;4897203;29;20031;-42
2021/06/30 00:26:55;;;;;;;14.23;2.60;;;;;;;;;;4897251;29;20119;-42
2021/06/30 00:29:20;;;;;;;11.77;3.42;;;;;;;;;;4895714;29;20387;-41
2021/06/30 00:31:46;;;;;;;14.38;2.75;;;;;;;;;;4897041;29;20044;-42
2021/06/30 00:34:11;;;;;;;15.98;3.20;;;;;;;;;;4896888;29;20020;-42
2021/06/30 00:36:43;;;;;;;15.60;2.38;;;;;;;;;;4896939;29;20036;-42
2021/06/30 00:39:09;;;;;;;14.00;2.55;;;;;;;;;;4896843;29;20071;-42
2021/06/30 00:41:34;;;;;;;12.25;2.20;;;;;;;;;;4897122;29;20527;-42
2021/06/30 00:43:59;;;;;;;12.95;3.00;;;;;;;;;;4897095;29;20024;-42
2021/06/30 00:46:29;;;;;;;9.82;2.25;;;;;;;;;;4895678;29;20080;-42
2021/06/30 00:48:54;;;;;;;15.07;2.65;;;;;;;;;;4897153;29;20124;-42
2021/06/30 00:51:20;;;;;;;13.05;2.50;;;;;;;;;;4897024;29;20124;-42
2021/06/30 00:53:46;;;;;;;9.25;2.30;;;;;;;;;;4896847;29;20041;-42
2021/06/30 00:56:11;;;;;;;12.63;2.40;;;;;;;;;;4896767;29;20028;-42
2021/06/30 00:58:37;;;;;;;13.63;3.78;;;;;;;;;;4896836;29;20029;-42
2021/06/30 01:01:02;;;;;;;12.50;2.30;;;;;;;;;;4897046;29;20057;-42
2021/06/30 01:03:28;;;;;;;14.75;2.15;;;;;;;;;;4896816;29;20033;-42
2021/06/30 01:05:54;;;;;;;18.50;3.90;;;;;;;;;;4896954;29;20391;-42
2021/06/30 01:08:19;;;;;;;13.35;2.95;;;;;;;;;;4896993;29;20384;-42
2021/06/30 01:10:44;;;;;;;14.50;2.10;;;;;;;;;;4899390;29;20436;-42
2021/06/30 01:13:10;;;;;;;7.68;2.38;;;;;;;;;;4899062;29;20475;-42
2021/06/30 01:15:54;;;;;;;10.73;2.97;;;;;;;;;;4900252;29;20025;-42
2021/06/30 01:18:21;;;;;;;11.20;2.78;;;;;;;;;;4900344;29;20396;-42
2021/06/30 01:20:46;;;;;;;6.50;2.50;;;;;;;;;;4898901;29;20029;-42
2021/06/30 01:23:12;;;;;;;14.73;3.83;;;;;;;;;;4899983;29;20037;-43
2021/06/30 01:25:37;;;;;;;9.25;3.03;;;;;;;;;;4900318;29;20070;-42
2021/06/30 01:28:03;;;;;;;4.57;2.60;;;;;;;;;;4899841;29;20429;-42
2021/06/30 01:30:28;;;;;;;7.25;2.80;;;;;;;;;;4899803;29;20051;-42
2021/06/30 01:32:53;;;;;;;13.20;2.22;;;;;;;;;;4899929;29;20060;-42
2021/06/30 01:35:22;;;;;;;7.38;2.45;;;;;;;;;;4898624;29;20077;-42
2021/06/30 01:37:48;;;;;;;10.90;1.98;;;;;;;;;;4882800;29;20055;-43
2021/06/30 01:40:14;;;;;;;10.05;3.08;;;;;;;;;;4899936;29;20523;-43
2021/06/30 01:42:42;;;;;;;10.20;2.58;;;;;;;;;;4900037;29;20068;-42
2021/06/30 01:45:08;;;;;;;13.13;2.00;;;;;;;;;;4899562;29;20024;-42
2021/06/30 01:47:33;;;;;;;6.50;2.40;;;;;;;;;;4899558;29;20086;-42
2021/06/30 01:49:58;;;;;;;7.82;2.03;;;;;;;;;;4898812;29;20089;-42
2021/06/30 01:52:29;;;;;;;11.15;2.38;;;;;;;;;;4899337;29;20040;-42
2021/06/30 01:54:54;;;;;;;10.77;2.67;;;;;;;;;;4899522;29;20035;-42
2021/06/30 01:57:19;;;;;;;11.50;2.55;;;;;;;;;;4899408;29;20024;-42
2021/06/30 01:59:45;;;;;;;15.82;2.55;;;;;;;;;;4899332;29;20111;-43
2021/06/30 02:02:10;;;;;;;13.38;3.08;;;;;;;;;;4899335;29;20028;-42
2021/06/30 02:04:35;;;;;;;8.10;2.20;;;;;;;;;;4899571;29;20021;-43
2021/06/30 02:07:01;;;;;;;10.32;2.78;;;;;;;;;;4899157;29;20048;-42
2021/06/30 02:09:26;;;;;;;17.77;3.35;;;;;;;;;;4899199;29;20016;-42
2021/06/30 02:11:51;;;;;;;7.32;2.00;;;;;;;;;;4899187;29;20048;-41
2021/06/30 02:14:16;;;;;;;10.75;2.30;;;;;;;;;;4899616;29;20072;-42
2021/06/30 02:16:42;;;;;;;8.93;3.17;;;;;;;;;;4899040;29;20044;-42
2021/06/30 02:19:08;;;;;;;7.80;2.15;;;;;;;;;;4899032;29;20021;-42
2021/06/30 02:21:36;;;;;;;8.93;2.20;;;;;;;;;;4898368;29;20036;-42
2021/06/30 02:24:02;;;;;;;15.60;3.15;;;;;;;;;;4899027;29;20080;-42
2021/06/30 02:26:28;;;;;;;8.63;2.00;;;;;;;;;;4898878;29;20029;-41
2021/06/30 02:28:53;;;;;;;13.30;2.65;;;;;;;;;;4898772;29;20083;-43
2021/06/30 02:31:19;;;;;;;14.60;2.45;;;;;;;;;;4898932;29;20036;-42
2021/06/30 02:33:45;;;;;;;10.70;2.58;;;;;;;;;;4898866;29;20107;-42
2021/06/30 02:36:10;;;;;;;12.30;2.75;;;;;;;;;;4898622;29;20055;-42
2021/06/30 02:38:35;;;;;;;10.15;2.63;;;;;;;;;;4897344;29;20053;-41
2021/06/30 02:41:01;;;;;;;7.40;2.28;;;;;;;;;;4898753;29;20098;-42
2021/06/30 02:43:26;;;;;;;7.75;2.50;;;;;;;;;;4898444;29;20498;-42
2021/06/30 02:45:51;;;;;;;15.70;2.15;;;;;;;;;;4898576;29;20044;-42
2021/06/30 02:48:17;;;;;;;20.95;2.50;;;;;;;;;;4898456;29;20021;-43
2021/06/30 02:50:42;;;;;;;4.93;2.45;;;;;;;;;;4898632;29;20040;-42
2021/06/30 02:53:07;;;;;;;11.85;2.80;;;;;;;;;;4898377;29;20565;-42
2021/06/30 02:55:33;;;;;;;7.93;2.05;;;;;;;;;;4898390;29;20115;-42
2021/06/30 02:57:58;;;;;;;7.50;2.15;;;;;;;;;;4898515;29;20023;-42
2021/06/30 03:00:24;;;;;;;12.70;2.72;;;;;;;;;;4898319;29;20036;-42
2021/06/30 03:02:50;;;;;;;11.32;2.80;;;;;;;;;;4898211;29;20535;-43
2021/06/30 03:05:15;;;;;;;8.15;1.85;;;;;;;;;;4898394;29;20036;-42
2021/06/30 03:07:41;;;;;;;16.00;2.95;;;;;;;;;;4898430;29;20021;-43
2021/06/30 03:10:07;;;;;;;9.38;2.40;;;;;;;;;;4898009;29;20384;-42
2021/06/30 03:12:33;;;;;;;6.70;2.15;;;;;;;;;;4897992;29;20044;-42
2021/06/30 03:14:59;;;;;;;7.82;2.10;;;;;;;;;;4898058;29;20137;-41
2021/06/30 03:17:24;;;;;;;11.20;3.10;;;;;;;;;;4897819;29;20124;-41
2021/06/30 03:19:49;;;;;;;10.35;2.20;;;;;;;;;;4898224;29;20116;-43
2021/06/30 03:22:15;;;;;;;11.68;2.35;;;;;;;;;;4897839;29;20028;-42
2021/06/30 03:24:40;;;;;;;9.88;2.35;;;;;;;;;;4898153;29;20029;-43
2021/06/30 03:27:06;;;;;;;8.90;2.15;;;;;;;;;;4897951;29;20088;-42
2021/06/30 03:29:31;;;;;;;7.72;2.13;;;;;;;;;;4898066;29;20084;-42
2021/06/30 03:31:56;;;;;;;8.35;2.90;;;;;;;;;;4897957;29;20067;-42
2021/06/30 03:34:22;;;;;;;6.43;1.88;;;;;;;;;;4897113;29;20527;-42
2021/06/30 03:36:47;;;;;;;6.95;2.50;;;;;;;;;;4898287;29;20017;-43
2021/06/30 03:39:13;;;;;;;12.90;2.42;;;;;;;;;;4897478;29;20048;-41
2021/06/30 03:41:39;;;;;;;12.27;2.10;;;;;;;;;;4897644;29;20619;-43
2021/06/30 03:44:04;;;;;;;6.07;2.17;;;;;;;;;;4897606;29;20053;-42
2021/06/30 03:46:29;;;;;;;5.13;2.78;;;;;;;;;;4897474;29;20353;-43
2021/06/30 03:48:55;;;;;;;9.95;2.00;;;;;;;;;;4897625;29;20468;-42
2021/06/30 03:51:20;;;;;;;8.70;2.20;;;;;;;;;;4897290;29;20091;-42
2021/06/30 03:53:45;;;;;;;18.83;3.17;;;;;;;;;;4897360;29;20065;-43
2021/06/30 03:56:11;;;;;;;8.57;2.20;;;;;;;;;;4897346;29;20040;-42
2021/06/30 03:58:36;;;;;;;9.00;2.67;;;;;;;;;;4897383;29;20028;-42
2021/06/30 04:01:01;;;;;;;4.22;1.98;;;;;;;;;;4897384;29;20021;-42
2021/06/30 04:03:27;;;;;;;8.05;2.65;;;;;;;;;;4896056;29;20052;-42
2021/06/30 04:05:52;;;;;;;8.23;1.85;;;;;;;;;;4897225;29;20034;-43
2021/06/30 04:08:17;;;;;;;9.70;2.75;;;;;;;;;;4897532;29;20111;-42
2021/06/30 04:10:43;;;;;;;11.23;2.22;;;;;;;;;;4897169;29;20028;-42
2021/06/30 04:13:09;;;;;;;11.93;1.92;;;;;;;;;;4897393;29;20063;-42
2021/06/30 04:15:34;;;;;;;7.97;2.72;;;;;;;;;;4897214;29;20052;-42
2021/06/30 04:18:02;;;;;;;8.43;1.95;;;;;;;;;;4897356;29;20036;-42
2021/06/30 04:20:27;;;;;;;10.82;2.65;;;;;;;;;;4897112;29;20037;-42
2021/06/30 04:22:53;;;;;;;10.18;2.10;;;;;;;;;;4897112;29;20037;-42
2021/06/30 04:25:18;;;;;;;8.90;2.95;;;;;;;;;;4895806;29;20081;-42
2021/06/30 04:27:44;;;;;;;7.20;2.88;;;;;;;;;;4897389;29;20042;-42
2021/06/30 04:30:10;;;;;;;11.45;2.78;;;;;;;;;;4895765;29;20408;-42
2021/06/30 04:32:35;;;;;;;12.25;2.60;;;;;;;;;;4897018;29;20136;-42
2021/06/30 04:35:01;;;;;;;7.07;2.33;;;;;;;;;;4897044;29;20108;-42
2021/06/30 04:37:26;;;;;;;10.38;2.50;;;;;;;;;;4897054;29;20044;-42
2021/06/30 04:39:52;;;;;;;9.18;2.92;;;;;;;;;;4896922;29;20163;-43
2021/06/30 04:42:18;;;;;;;10.30;2.33;;;;;;;;;;4896821;29;20051;-42
2021/06/30 04:44:44;;;;;;;10.98;2.25;;;;;;;;;;4897930;29;20036;-42
2021/06/30 04:47:09;;;;;;;9.88;2.65;;;;;;;;;;4900706;29;20040;-42
2021/06/30 04:49:35;;;;;;;3.63;2.00;;;;;;;;;;4900643;29;20021;-42
2021/06/30 04:52:00;;;;;;;4.15;2.22;;;;;;;;;;4900915;29;20044;-42
2021/06/30 04:54:25;;;;;;;12.10;2.47;;;;;;;;;;4900752;29;20481;-42
2021/06/30 04:56:51;;;;;;;6.43;2.28;;;;;;;;;;4900680;29;20040;-42
2021/06/30 04:59:17;;;;;;;7.45;2.60;;;;;;;;;;4900471;29;20052;-41
2021/06/30 05:01:43;;;;;;;7.45;1.67;;;;;;;;;;4900756;29;20059;-42
2021/06/30 05:04:08;;;;;;;9.43;2.60;;;;;;;;;;4900364;29;20468;-42
2021/06/30 05:06:35;;;;;;;5.10;1.75;;;;;;;;;;4900327;29;20044;-41
2021/06/30 05:09:00;;;;;;;7.85;2.00;;;;;;;;;;4900391;29;20112;-42
2021/06/30 05:11:26;;;;;;;9.95;2.22;;;;;;;;;;4900112;29;20123;-42
2021/06/30 05:13:51;;;;;;;6.53;2.60;;;;;;;;;;4900533;29;20024;-43
2021/06/30 05:16:16;;;;;;;9.45;3.03;;;;;;;;;;4899958;29;20476;-43
2021/06/30 05:18:41;;;;;;;10.77;2.90;;;;;;;;;;4900230;29;20028;-42
2021/06/30 05:21:07;;;;;;;9.45;2.70;;;;;;;;;;4898814;29;20032;-42
2021/06/30 05:23:32;;;;;;;7.60;2.63;;;;;;;;;;4900154;29;20357;-41
2021/06/30 05:25:58;;;;;;;9.05;3.15;;;;;;;;;;4899031;29;20064;-42
2021/06/30 05:28:23;;;;;;;11.98;2.20;;;;;;;;;;4899848;29;20029;-42
2021/06/30 05:30:49;;;;;;;10.57;3.08;;;;;;;;;;4899993;29;20029;-42
2021/06/30 05:33:15;;;;;;;8.13;2.72;;;;;;;;;;4900007;29;20361;-43
2021/06/30 05:35:40;;;;;;;8.63;2.67;;;;;;;;;;4899965;29;20029;-42
2021/06/30 05:38:06;;;;;;;18.20;2.90;;;;;;;;;;4899556;29;20136;-43
2021/06/30 05:40:31;;;;;;;12.70;2.95;;;;;;;;;;4899725;29;20051;-42
2021/06/30 05:42:57;;;;;;;9.35;3.58;;;;;;;;;;4900105;29;20016;-43
2021/06/30 05:45:22;;;;;;;11.63;2.55;;;;;;;;;;4899676;29;20400;-43
2021/06/30 05:47:48;;;;;;;8.57;2.67;;;;;;;;;;4899610;29;20020;-43
2021/06/30 05:50:14;;;;;;;8.77;3.17;;;;;;;;;;4899853;29;20033;-42
2021/06/30 05:52:40;;;;;;;13.05;2.97;;;;;;;;;;4899731;29;20428;-43
2021/06/30 05:55:06;;;;;;;6.45;2.28;;;;;;;;;;4899380;29;20039;-42
2021/06/30 05:57:32;;;;;;;6.47;2.35;;;;;;;;;;4898708;29;20021;-42
2021/06/30 05:59:58;;;;;;;7.63;2.20;;;;;;;;;;4899764;29;20028;-42
2021/06/30 06:02:23;;;;;;;12.32;2.60;;;;;;;;;;4899584;29;20532;-41
2021/06/30 06:04:48;;;;;;;11.07;2.60;;;;;;;;;;4899586;29;20488;-43
2021/06/30 06:07:14;;;;;;;12.93;2.42;;;;;;;;;;4899280;29;20038;-44
2021/06/30 06:09:39;;;;;;;13.02;2.13;;;;;;;;;;4899177;29;20039;-42
2021/06/30 06:12:05;;;;;;;9.48;2.40;;;;;;;;;;4899119;29;20159;-43
2021/06/30 06:14:30;;;;;;;4.32;2.35;;;;;;;;;;4899299;29;20036;-43
2021/06/30 06:16:56;;;;;;;9.65;3.05;;;;;;;;;;4882210;29;20044;-42
2021/06/30 06:19:22;;;;;;;8.57;2.20;;;;;;;;;;4899085;29;20392;-42
2021/06/30 06:21:48;;;;;;;9.73;2.80;;;;;;;;;;4899063;29;20035;-42
2021/06/30 06:24:13;;;;;;;2.55;1.85;;;;;;;;;;4898859;29;20032;-42
2021/06/30 06:26:38;;;;;;;5.38;2.38;;;;;;;;;;4899005;29;20099;-43
2021/06/30 06:29:04;;;;;;;5.45;2.50;;;;;;;;;;4898856;29;20120;-42
2021/06/30 06:31:30;;;;;;;10.95;2.20;;;;;;;;;;4899020;29;20036;-43
2021/06/30 06:33:55;;;;;;;4.10;1.67;;;;;;;;;;4899145;29;20029;-42
2021/06/30 06:36:20;;;;;;;4.22;1.67;;;;;;;;;;4898921;29;20365;-43
2021/06/30 06:38:46;;;;;;;3.63;1.70;;;;;;;;;;4898586;29;20575;-42
2021/06/30 06:41:11;;;;;;;15.82;2.58;;;;;;;;;;4898662;29;20416;-43
2021/06/30 06:43:38;;;;;;;5.60;1.75;;;;;;;;;;4898853;29;20040;-43
2021/06/30 06:46:03;;;;;;;7.05;1.95;;;;;;;;;;4898596;29;20036;-42
2021/06/30 06:48:28;;;;;;;1.60;1.50;;;;;;;;;;4898738;29;20104;-43
2021/06/30 06:50:54;;;;;;;5.72;1.35;;;;;;;;;;4898756;29;20039;-44
2021/06/30 06:53:19;;;;;;;3.47;2.13;;;;;;;;;;4898569;29;20032;-43
2021/06/30 06:55:45;;;;;;;3.53;1.83;;;;;;;;;;4897152;29;20021;-42
2021/06/30 06:58:10;;;;;;;5.13;1.70;;;;;;;;;;4898378;29;20040;-43
2021/06/30 07:00:36;;;;;;;5.53;1.40;;;;;;;;;;4898574;29;20051;-42
2021/06/30 07:03:01;;;;;;;2.33;1.30;;;;;;;;;;4898342;29;20025;-43
2021/06/30 07:05:26;;;;;;;5.88;2.45;;;;;;;;;;4898048;29;20048;-43
2021/06/30 07:07:52;;;;;;;7.40;2.17;;;;;;;;;;4898038;29;20032;-43
2021/06/30 07:10:17;;;;;;;5.88;1.75;;;;;;;;;;4898352;29;20476;-43
2021/06/30 07:12:43;;;;;;;12.88;1.77;;;;;;;;;;4898250;29;20051;-43
2021/06/30 07:15:08;;;;;;;2.30;1.40;;;;;;;;;;4898275;29;20044;-42
2021/06/30 07:17:34;;;;;;;3.17;2.08;;;;;;;;;;4898079;29;20032;-43
2021/06/30 07:20:00;;;;;;;6.85;1.50;;;;;;;;;;4898292;29;20020;-43
2021/06/30 07:22:25;;;;;;;6.35;1.40;;;;;;;;;;4897891;29;20132;-43
2021/06/30 07:24:50;;;;;;;3.00;1.33;;;;;;;;;;4897947;29;20021;-43
2021/06/30 07:27:16;;;;;;;3.17;1.88;;;;;;;;;;4897745;29;20039;-42
2021/06/30 07:29:41;;;;;;;2.95;1.38;;;;;;;;;;4898208;29;20104;-42
2021/06/30 07:32:07;;;;;;;5.25;1.67;;;;;;;;;;4897897;29;20448;-42
2021/06/30 07:34:32;;;;;;;3.40;1.10;;;;;;;;;;4897796;29;20608;-42
2021/06/30 07:36:58;;;;;;;4.45;1.10;;;;;;;;;;4897964;29;20036;-43
2021/06/30 07:39:24;;;;;;;4.25;1.38;;;;;;;;;;4897327;29;20525;-42
2021/06/30 07:41:54;;;;;;;4.90;1.42;;;;;;;;;;4897580;29;20502;-43
2021/06/30 07:44:20;;;;;;;1.90;1.30;;;;;;;;;;4896249;29;20067;-43
2021/06/30 07:46:45;;;;;;;4.05;1.50;;;;;;;;;;4897826;29;20052;-43
2021/06/30 07:49:10;;;;;;;2.33;1.38;;;;;;;;;;4897528;29;20464;-43
2021/06/30 07:51:36;;;;;;;2.72;1.38;;;;;;;;;;4897652;29;20080;-43
2021/06/30 07:54:01;;;;;;;1.70;1.23;;;;;;;;;;4897546;29;20056;-43
2021/06/30 07:56:39;;;;;;;2.28;1.33;;;;;;;;;;4896301;29;20084;-42
2021/06/30 07:59:05;;;;;;;1.92;1.40;;;;;;;;;;4897747;29;20028;-43
2021/06/30 08:01:31;;;;;;;6.47;1.30;;;;;;;;;;4897294;29;20472;-42
2021/06/30 08:03:56;;;;;;;3.35;1.45;;;;;;;;;;4897313;29;20108;-43
2021/06/30 08:06:21;;;;;;;2.08;1.55;;;;;;;;;;4897476;29;20024;-43
2021/06/30 08:08:47;;;;;;;1.27;0.90;;;;;;;;;;4897354;29;20032;-43
2021/06/30 08:11:12;;;;;;;6.45;1.33;;;;;;;;;;4897053;29;20028;-43
2021/06/30 08:13:37;;;;;;;2.03;1.58;;;;;;;;;;4897584;29;20025;-43
2021/06/30 08:16:03;;;;;;;5.40;1.23;;;;;;;;;;4897110;29;20575;-42
2021/06/30 08:18:28;;;;;;;3.33;2.35;;;;;;;;;;4897255;29;20118;-43
2021/06/30 08:20:54;;;;;;;6.93;1.17;;;;;;;;;;4903225;29;20512;-43
2021/06/30 08:23:21;;;;;;;2.72;1.02;;;;;;;;;;4902474;29;20037;-43
2021/06/30 08:25:47;;;;;;;2.63;1.20;;;;;;;;;;4902164;29;20466;-43
2021/06/30 08:28:13;;;;;;;3.70;0.77;;;;;;;;;;4903328;29;20116;-43
2021/06/30 08:30:39;;;;;;;1.83;1.13;;;;;;;;;;4903346;29;20052;-43
2021/06/30 08:33:04;;;;;;;1.67;1.25;;;;;;;;;;4903881;29;20116;-42
2021/06/30 08:35:30;;;;;;;2.15;1.20;;;;;;;;;;4903310;29;20107;-44
2021/06/30 08:37:55;;;;;;;2.63;0.85;;;;;;;;;;4903359;29;20079;-43
2021/06/30 08:40:21;;;;;;;2.05;0.80;;;;;;;;;;4903269;29;20123;-43
2021/06/30 08:42:47;;;;;;;1.75;1.00;;;;;;;;;;4903778;29;20108;-43
2021/06/30 08:45:13;;;;;;;2.65;0.82;;;;;;;;;;4903132;29;20464;-43
2021/06/30 08:47:39;;;;;;;4.32;1.10;;;;;;;;;;4903301;29;20054;-43
2021/06/30 08:50:07;;;;;;;6.15;0.95;;;;;;;;;;4903303;29;20048;-43
2021/06/30 08:52:34;;;;;;;4.22;1.10;;;;;;;;;;4903281;29;20044;-42
2021/06/30 08:55:01;;;;;;;4.38;1.15;;;;;;;;;;4903278;29;20069;-42
2021/06/30 08:57:27;;;;;;;8.07;1.40;;;;;;;;;;4903001;29;20071;-43
2021/06/30 08:59:52;;;;;;;2.28;1.10;;;;;;;;;;4903190;29;20027;-43
2021/06/30 09:02:18;;;;;;;3.92;1.02;;;;;;;;;;4903113;29;20037;-42
2021/06/30 09:04:43;;;;;;;17.88;1.55;;;;;;;;;;4903076;29;20028;-44
2021/06/30 09:07:09;;;;;;;3.40;0.73;;;;;;;;;;4901712;29;20052;-42
2021/06/30 09:09:39;;;;;;;1.80;1.17;;;;;;;;;;4901899;29;20383;-43
2021/06/30 09:12:06;;;;;;;1.20;0.75;;;;;;;;;;4901764;29;20055;-43
2021/06/30 09:14:36;;;;;;;2.63;0.90;;;;;;;;;;4903207;29;20156;-43
2021/06/30 09:17:13;;;;;;;2.60;0.80;;;;;;;;;;4902991;29;20037;-43
2021/06/30 09:19:45;;;;;;;4.70;1.13;;;;;;;;;;4903060;29;20491;-43
2021/06/30 09:22:10;;;;;;;3.13;0.75;;;;;;;;;;4903105;29;20043;-43
2021/06/30 09:24:36;;;;;;;4.25;0.80;;;;;;;;;;4903297;29;20024;-43
2021/06/30 09:27:02;;;;;;;3.33;1.13;;;;;;;;;;4902864;29;20037;-42
2021/06/30 09:29:27;;;;;;;1.65;1.02;;;;;;;;;;4903011;29;20025;-43
2021/06/30 09:31:53;;;;;;;1.48;1.20;;;;;;;;;;4900674;29;20044;-43
2021/06/30 09:34:23;;;;;;;1.00;0.82;;;;;;;;;;4900051;29;20441;-42
2021/06/30 09:36:53;;;;;;;14.48;1.40;;;;;;;;;;4899922;29;20055;-44
2021/06/30 09:39:19;;;;;;;3.72;1.00;;;;;;;;;;4899616;29;20117;-43
2021/06/30 09:41:45;;;;;;;6.32;1.08;;;;;;;;;;4899759;29;20060;-43
2021/06/30 09:44:12;;;;;;;1.00;0.90;;;;;;;;;;4899707;29;20039;-42
2021/06/30 09:46:38;;;;;;;1.80;0.73;;;;;;;;;;4899653;29;20016;-42
2021/06/30 09:49:05;;;;;;;2.47;0.95;;;;;;;;;;4899721;29;20033;-43
2021/06/30 09:51:31;;;;;;;1.95;0.70;;;;;;;;;;4899493;29;20024;-43
2021/06/30 09:54:07;;;;;;;1.23;0.57;;;;;;;;;;4898400;29;20028;-42
2021/06/30 09:56:35;;;;;;;4.75;0.63;;;;;;;;;;4899650;29;20059;-42
2021/06/30 09:59:01;;;;;;;1.77;0.93;;;;;;;;;;4899851;29;20107;-42
2021/06/30 10:01:27;;;;;;;2.15;0.77;;;;;;;;;;4899357;29;20128;-43
2021/06/30 10:03:53;;;;;;;6.82;0.95;;;;;;;;;;4899583;29;20020;-42
2021/06/30 10:06:24;;;;;;;1.23;0.70;;;;;;;;;;4899238;29;20036;-42
2021/06/30 10:08:50;;;;;;;0.75;0.55;;;;;;;;;;4899299;29;20488;-43
2021/06/30 10:11:15;;;;;;;2.45;0.95;;;;;;;;;;4899382;29;20028;-42
2021/06/30 10:13:40;;;;;;;11.88;1.00;;;;;;;;;;4882372;29;20128;-43
2021/06/30 10:16:06;;;;;;;1.48;0.60;;;;;;;;;;4899013;29;20125;-42
2021/06/30 10:18:34;;;;;;;2.33;0.80;;;;;;;;;;4898162;29;20033;-44
2021/06/30 10:20:59;;;;;;;0.90;0.55;;;;;;;;;;4899171;29;20024;-42
2021/06/30 10:23:28;;;;;;;6.82;0.82;;;;;;;;;;4898966;29;20081;-43
2021/06/30 10:25:54;;;;;;;0.80;0.52;;;;;;;;;;4899137;29;20071;-43
2021/06/30 10:28:23;;;;;;;1.15;0.80;;;;;;;;;;4898899;29;20072;-43
2021/06/30 10:30:52;;;;;;;0.98;0.63;;;;;;;;;;4898897;29;20095;-42
2021/06/30 10:33:31;;;;;;;3.00;0.63;;;;;;;;;;4898602;29;20110;-43
2021/06/30 10:35:58;;;;;;;2.95;0.55;;;;;;;;;;4898889;29;20052;-43
2021/06/30 10:38:43;;;;;;;0.65;0.30;;;;;;;;;;4898380;29;20294;-42
2021/06/30 10:41:28;;;;;;;4.07;1.00;;;;;;;;;;4897383;29;20434;-47
2021/06/30 10:44:07;;;;;;;3.75;0.45;;;;;;;;;;4898198;29;20480;-42
2021/06/30 10:46:32;;;;;;;2.65;0.63;;;;;;;;;;4898383;29;20404;-42
2021/06/30 10:49:13;;;;;;;2.75;1.67;;;;;;;;;;4897473;29;20031;-42
2021/06/30 10:51:39;;;;;;;7.03;0.80;;;;;;;;;;4897174;29;20040;-42
2021/06/30 10:54:25;;;;;;;4.43;0.55;;;;;;;;;;4898380;29;20027;-43
2021/06/30 10:57:10;;;;;;;0.77;0.45;;;;;;;;;;4898321;29;20639;-43
2021/06/30 10:59:54;;;;;;;4.80;0.65;;;;;;;;;;4898310;29;20043;-43
2021/06/30 11:02:20;;;;;;;1.15;0.60;;;;;;;;;;4898298;29;20036;-42
2021/06/30 11:04:45;;;;;;;2.72;0.70;;;;;;;;;;4898312;29;20036;-42
2021/06/30 11:07:33;;;;;;;0.77;0.50;;;;;;;;;;4898175;29;20032;-42
2021/06/30 11:10:34;;;;;;;0.85;0.63;;;;;;;;;;4898202;29;20033;-43
2021/06/30 11:13:03;;;;;;;1.65;0.80;;;;;;;;;;4877162;29;20092;-42
2021/06/30 11:15:38;;;;;;;0.95;0.35;;;;;;;;;;4894246;29;20031;-43
2021/06/30 11:18:12;;;;;;;0.65;0.40;;;;;;;;;;4898011;29;20037;-43
2021/06/30 11:20:48;;;;;;;3.15;0.52;;;;;;;;;;4898118;29;20021;-43
2021/06/30 11:23:18;;;;;;;0.77;0.50;;;;;;;;;;4896713;29;20068;-42
2021/06/30 11:25:43;;;;;;;0.85;0.70;;;;;;;;;;4897963;29;20084;-42
2021/06/30 11:28:35;;;;;;;0.55;0.55;;;;;;;;;;4897936;29;20439;-43
2021/06/30 11:31:19;;;;;;;1.23;0.80;;;;;;;;;;4887745;29;20050;-42
2021/06/30 11:34:00;;;;;;;1.13;0.57;;;;;;;;;;4896628;29;20038;-42
2021/06/30 11:36:25;;;;;;;1.70;0.80;;;;;;;;;;4897828;29;20424;-43
2021/06/30 11:38:51;;;;;;;0.50;0.50;;;;;;;;;;4897757;29;20059;-42
2021/06/30 11:41:23;;;;;;;0.90;0.60;;;;;;;;;;4897780;29;20444;-43
2021/06/30 11:43:49;;;;;;;1.92;0.50;;;;;;;;;;4897695;29;20116;-42
2021/06/30 11:46:15;;;;;;;0.52;0.43;;;;;;;;;;4897533;29;20124;-43
2021/06/30 11:48:41;;;;;;;0.98;0.55;;;;;;;;;;4897566;29;20558;-42
2021/06/30 11:51:09;;;;;;;0.82;0.50;;;;;;;;;;4897975;29;20099;-42
2021/06/30 11:53:43;;;;;;;1.90;0.60;;;;;;;;;;4897005;29;20036;-42
2021/06/30 11:56:10;;;;;;;2.95;0.55;;;;;;;;;;4897460;29;20039;-42
2021/06/30 11:58:44;;;;;;;2.88;0.70;;;;;;;;;;4897382;29;20021;-43
2021/06/30 12:01:16;;;;;;;0.93;0.40;;;;;;;;;;4897375;29;20042;-43
2021/06/30 12:03:41;;;;;;;3.10;1.55;;;;;;;;;;4897642;29;20029;-42
2021/06/30 12:06:20;;;;;;;1.42;0.43;;;;;;;;;;4897229;29;20020;-42
2021/06/30 12:09:03;;;;;;;1.58;0.35;;;;;;;;;;4897325;29;20032;-42
2021/06/30 12:11:29;;;;;;;4.15;0.75;;;;;;;;;;4897389;29;20459;-42
2021/06/30 12:14:07;;;;;;;0.50;0.43;;;;;;;;;;4897464;29;20095;-42
2021/06/30 12:16:46;;;;;;;1.27;0.52;;;;;;;;;;4897093;29;20033;-42
2021/06/30 12:19:12;;;;;;;1.05;0.50;;;;;;;;;;4897321;29;20032;-44
2021/06/30 12:21:38;;;;;;;4.68;0.88;;;;;;;;;;4897454;29;20045;-42
2021/06/30 12:24:11;;;;;;;0.98;0.60;;;;;;;;;;4897181;29;20458;-41
2021/06/30 12:26:36;;;;;;;1.08;0.50;;;;;;;;;;4897056;29;20056;-42
2021/06/30 12:29:02;;;;;;;1.70;0.57;;;;;;;;;;4897389;29;20063;-42
2021/06/30 12:31:27;;;;;;;2.38;0.60;;;;;;;;;;4895797;29;20120;-42
2021/06/30 12:33:53;;;;;;;2.05;0.65;;;;;;;;;;4897079;29;20017;-42
2021/06/30 12:36:22;;;;;;;0.60;0.60;;;;;;;;;;4896940;29;20033;-42
2021/06/30 12:38:47;;;;;;;2.35;0.50;;;;;;;;;;4897113;29;20107;-42
2021/06/30 12:41:13;;;;;;;0.77;0.55;;;;;;;;;;4897152;29;20484;-42
2021/06/30 12:43:38;;;;;;;3.92;0.68;;;;;;;;;;4895928;29;20041;-42
2021/06/30 12:46:16;;;;;;;1.70;0.50;;;;;;;;;;4897220;29;20032;-42
2021/06/30 12:48:43;;;;;;;0.88;0.57;;;;;;;;;;4896952;29;20048;-42
2021/06/30 12:51:11;;;;;;;0.90;0.52;;;;;;;;;;4896945;29;20480;-42
2021/06/30 12:53:38;;;;;;;1.55;0.90;;;;;;;;;;4896904;29;20036;-43
2021/06/30 12:56:03;;;;;;;1.05;0.50;;;;;;;;;;4896939;29;20164;-43
2021/06/30 12:58:36;;;;;;;0.70;0.55;;;;;;;;;;4897092;29;20080;-43
2021/06/30 13:01:03;;;;;;;0.73;0.60;;;;;;;;;;4897197;29;20387;-42
2021/06/30 13:03:29;;;;;;;3.13;0.73;;;;;;;;;;4896754;29;20024;-42
2021/06/30 13:06:28;;;;;;;1.52;1.23;;;;;;;;;;4898015;29;20518;-42
2021/06/30 13:09:01;;;;;;;1.42;0.80;;;;;;;;;;4888873;29;20051;-43
2021/06/30 13:11:28;;;;;;;2.38;0.75;;;;;;;;;;4899099;29;20047;-42
2021/06/30 13:13:54;;;;;;;0.95;0.85;;;;;;;;;;4900362;29;20156;-42
2021/06/30 13:16:20;;;;;;;0.57;0.40;;;;;;;;;;4900361;29;20039;-42
2021/06/30 13:18:48;;;;;;;4.68;0.82;;;;;;;;;;4900291;29;20028;-42
2021/06/30 13:21:14;;;;;;;3.55;0.80;;;;;;;;;;4900367;29;20111;-43
2021/06/30 13:23:50;;;;;;;0.00;0.00;;;;;;;;;;4900158;29;20108;-43
2021/06/30 13:34:37;;;;;;;0.63;0.60;;;;;;;;;;4900193;29;20028;-42
2021/06/30 13:37:02;;;;;;;1.65;0.35;;;;;;;;;;4899878;29;20388;-42
2021/06/30 13:39:28;;;;;;;4.88;0.50;;;;;;;;;;4899547;29;20048;-42
2021/06/30 13:41:54;;;;;;;1.02;0.63;;;;;;;;;;4899888;29;20028;-42
2021/06/30 13:44:25;;;;;;;1.27;0.85;;;;;;;;;;4898764;29;20049;-42
2021/06/30 13:46:51;;;;;;;1.27;0.50;;;;;;;;;;4899700;29;20033;-42
2021/06/30 13:49:16;;;;;;;2.47;1.23;;;;;;;;;;4899904;29;20043;-42
2021/06/30 13:51:41;;;;;;;3.60;0.80;;;;;;;;;;4899814;29;20475;-42
2021/06/30 13:54:07;;;;;;;2.58;0.82;;;;;;;;;;4899726;29;20025;-42
2021/06/30 13:56:33;;;;;;;4.60;1.20;;;;;;;;;;4898216;29;20024;-42
2021/06/30 13:58:59;;;;;;;1.20;0.90;;;;;;;;;;4898360;29;20076;-42
2021/06/30 14:01:24;;;;;;;3.25;0.80;;;;;;;;;;4899446;29;20029;-43
2021/06/30 14:03:52;;;;;;;1.40;0.80;;;;;;;;;;4899412;29;20041;-42
2021/06/30 14:06:19;;;;;;;5.13;1.20;;;;;;;;;;4899309;29;20118;-43
2021/06/30 14:08:45;;;;;;;3.83;0.45;;;;;;;;;;4899603;29;20380;-42
2021/06/30 14:11:11;;;;;;;1.48;1.02;;;;;;;;;;4899313;29;20511;-43
2021/06/30 14:13:38;;;;;;;0.32;0.32;;;;;;;;;;4899144;29;20036;-42
2021/06/30 14:16:05;;;;;;;2.85;0.80;;;;;;;;;;4899413;29;20388;-42
2021/06/30 14:18:32;;;;;;;4.82;0.80;;;;;;;;;;4897100;29;20115;-42
2021/06/30 14:20:57;;;;;;;2.75;0.90;;;;;;;;;;4897804;29;20123;-42
2021/06/30 14:23:27;;;;;;;1.52;0.80;;;;;;;;;;4899084;29;20028;-42
2021/06/30 14:25:53;;;;;;;1.33;0.57;;;;;;;;;;4899077;29;20028;-42
2021/06/30 14:28:19;;;;;;;1.48;0.70;;;;;;;;;;4898868;29;20064;-42
2021/06/30 14:30:48;;;;;;;2.25;0.63;;;;;;;;;;4899062;29;20052;-42
2021/06/30 14:33:17;;;;;;;5.80;1.45;;;;;;;;;;4899027;29;20052;-41
2021/06/30 14:35:43;;;;;;;2.13;0.85;;;;;;;;;;4899135;29;20025;-42
2021/06/30 14:38:08;;;;;;;0.20;0.10;;;;;;;;;;4898876;29;20160;-42
2021/06/30 14:40:34;;;;;;;3.10;0.82;;;;;;;;;;4898639;29;20495;-42
2021/06/30 14:43:00;;;;;;;0.63;0.63;;;;;;;;;;4898788;29;20084;-42
2021/06/30 14:45:28;;;;;;;4.00;1.20;;;;;;;;;;4898582;29;20485;-42
2021/06/30 14:47:58;;;;;;;1.65;0.88;;;;;;;;;;4898689;29;20037;-42